| Date | Time | Temp. (oF) | Dew Point (oF) | Rel. Hum. (%) | Press. (in.) | Wind Dir. | Wind Speed (mph) | Hourly Rainfall (in.) |
|
|---|---|---|---|---|---|---|---|---|---|
| 1 | 06/17 | 00:00 | 62 | 59 | 91 | 29.70 | E | 3 | 0.00 |
| 2 | 06/16 | 23:00 | 63 | 60 | 92 | 29.70 | ENE | 0 | 0.00 |
| 3 | 06/16 | 22:00 | 63 | 62 | 98 | 29.69 | SSW | 0 | 0.00 |
| 4 | 06/16 | 21:00 | 63 | 63 | 100 | 29.67 | ENE | 0 | 0.00 |
| 5 | 06/16 | 20:00 | 64 | 63 | 100 | 29.68 | SE | 4 | 0.00 |
| 6 | 06/16 | 19:00 | 65 | 64 | 100 | 29.67 | E | 6 | 0.01 |
| 7 | 06/16 | 18:00 | 67 | 67 | 100 | 29.63 | E | 3 | 0.00 |
| 8 | 06/16 | 17:00 | 68 | 68 | 100 | 29.64 | SE | 2 | 0.00 |
| 9 | 06/16 | 16:00 | 68 | 68 | 100 | 29.65 | SE | 2 | 0.00 |
| 10 | 06/16 | 15:00 | 69 | 68 | 100 | 29.71 | SW | 3 | 0.00 |
| 11 | 06/16 | 14:00 | 68 | 68 | 100 | 29.71 | ENE | 0 | 0.00 |
| 12 | 06/16 | 13:00 | 65 | 59 | 82 | 29.72 | ENE | 2 | 0.01 |
| 13 | 06/16 | 12:00 | 64 | 57 | 79 | 29.73 | E | 2 | 0.00 |
| 14 | 06/16 | 11:00 | 63 | 58 | 85 | 29.72 | NE | 0 | 0.15 |
| 15 | 06/16 | 10:00 | 63 | 58 | 85 | 29.70 | NNE | 4 | 0.06 |
| 16 | 06/16 | 09:00 | 63 | 56 | 78 | 29.70 | ENE | 0 | 0.01 |
| 17 | 06/16 | 08:00 | 62 | 56 | 83 | 29.70 | SE | 0 | 0.00 |
| 18 | 06/16 | 07:00 | 62 | 57 | 84 | 29.70 | E | 3 | 0.08 |
| 19 | 06/16 | 06:00 | 62 | 60 | 96 | 29.71 | NNE | 3 | 0.10 |
| 20 | 06/16 | 05:00 | 63 | 63 | 100 | 29.69 | SE | 4 | 0.01 |
| 21 | 06/16 | 04:00 | 63 | 63 | 100 | 29.71 | NE | 4 | 0.15 |
| 22 | 06/16 | 03:00 | 63 | 63 | 100 | 29.73 | W | 0 | 0.05 |
| 23 | 06/16 | 02:00 | 63 | 63 | 100 | 29.72 | ESE | 0 | 0.00 |
| 24 | 06/16 | 01:00 | 65 | 64 | 100 | 29.75 | ENE | 2 | 0.01 |